Cortez, CO

11:22 AM MDT on August 23, 2014 (GMT -0600)
Kelly Place B&B, McElmo Canyon | Change Station
CLOSE
Current Station
Personal Weather Station
Location: Cortez, CO
Elevation: 5522 ft
Nearby Weather Stations

Elev 5522 ft 37.34 °N, 108.79 °W | Updated 2 minutes ago

Mostly Cloudy
Mostly Cloudy
75.7 °F
Feels Like 78 °F
N
2.9
Wind Variable Wind from West
Gusts 7.2 mph

Today
High -- | Low -- °F
--% Chance of Precip.
Yesterday
High -- | Low -- °F
Precip. -- in
6:37 AM 7:56 PM
Waning Crescent, 3% visible
Pressure 29.98 in
Visibility 10.0 miles
Clouds Scattered Clouds 4300 ft
Mostly Cloudy 6000 ft
Heat Index 78 °F
Dew Point 53 °F
Humidity 46%
Rainfall 0.04 in
Snow Depth Not available.
UV 4 out of 12
Pollen 8.00 out of 12
Air Quality Not available.
Flu Activity Not available.
METAR KCEZ 231653Z AUTO 21005KT 10SM SCT043 BKN060 19/11 A3016 RMK AO2 SLP152 T01940111 $

More Conditions Fewer Conditions

Pressure 29.98 in
Visibility 10.0 miles
Clouds Scattered Clouds 4300 ft
Mostly Cloudy 6000 ft
Heat Index 78 °F
Dew Point 53 °F
Humidity 46%
Rainfall 0.04 in
Snow Depth Not available.
UV 4 out of 12
Pollen 8.00 out of 12
Air Quality Not available.
Flu Activity Not available.
METAR KCEZ 231653Z AUTO 21005KT 10SM SCT043 BKN060 19/11 A3016 RMK AO2 SLP152 T01940111 $

More Conditions Fewer Conditions

10-Day Weather Forecast

Almanac

Astronomy

Aug. 23, 2014 Rise Set
Actual Time 6:37 AM MDT 7:56 PM MDT
Civil Twilight 6:10 AM MDT 8:23 PM MDT
Nautical Twilight 5:38 AM MDT 8:56 PM MDT
Astronomical Twilight 5:04 AM MDT 9:29 PM MDT
Moon 4:57 AM MDT 6:42 PM MDT
Length of Visible Light 14h 12m
Length of Day
13h 18m
Tomorrow will be 2m 14s shorter.
Waning Crescent, 3% of the Moon is Illuminated
Today
Waning Crescent
Aug 25
New
Sep 2
First Quarter
Sep 8
Full
Sep 15
Last Quarter

Today's Extremes

State Highs State Lows

Community

WunderPhotos

Upload Photos

1,746,534 photos uploaded!

WunderBlogs® & News

By Dr. Jeff Masters
Director of Meteorology, Weather Underground
By Kari Strenfel
Meteorologist, Weather Underground
By Christopher C. Burt
Weather Historian, Weather Underground
August 23, 2014
August 23, 2014
August 23, 2014

Nearby

Snow Depth

Station Depth Elevation
Sharkstooth 1 in 10720 ft
Columbus Basin 1 in 10785 ft
Scotch Creek 0 in 9100 ft
Lone Cone 2 in 9600 ft
El Diente Peak 1 in 10200 ft

Earthquake Activity

City Distance Mag. Time & Date
No recent earthquake activity has been reported nearby.
Minimum magnitude displayed is 2.5.

Coastal Water Temperatures

Place Temperature
No Stations Reporting

Nearby Weather Stations